Time;durP1;ratioP1;P1;durP2;ratioP2;P2;SDS_P1;SDS_P2;PMS_P1;PMS_P2;Temp;Humidity;BMP_temperature;BMP_pressure;BME280_temperature;BME280_humidity;BME280_pressure;Samples;Min_cycle;Max_cycle;Signal;HPM_P1;HPM_P2
2020/12/01 00:01:53;;;;;;;6.11;5.44;;;;;;;18.93;46.85;100691.00;;;;-55
2020/12/01 00:04:53;;;;;;;6.56;5.93;;;;;;;18.90;46.78;100692.73;;;;-59
2020/12/01 00:07:52;;;;;;;6.13;5.53;;;;;;;18.87;46.85;100687.02;;;;-51
2020/12/01 00:10:53;;;;;;;6.19;5.57;;;;;;;18.85;46.90;100684.89;;;;-51
2020/12/01 00:13:53;;;;;;;6.27;5.67;;;;;;;18.84;46.90;100672.44;;;;-60
2020/12/01 00:16:52;;;;;;;6.56;5.95;;;;;;;18.82;46.92;100678.83;;;;-51
2020/12/01 00:19:53;;;;;;;6.23;5.57;;;;;;;18.81;46.81;100678.34;;;;-56
2020/12/01 00:22:53;;;;;;;6.09;5.49;;;;;;;18.78;46.97;100675.93;;;;-56
2020/12/01 00:25:52;;;;;;;6.27;5.67;;;;;;;18.76;46.84;100668.08;;;;-55
2020/12/01 00:28:53;;;;;;;6.81;5.88;;;;;;;18.74;46.79;100663.29;;;;-51
2020/12/01 00:31:53;;;;;;;6.07;5.47;;;;;;;18.72;46.88;100657.80;;;;-50
2020/12/01 00:34:53;;;;;;;6.17;5.57;;;;;;;18.71;46.80;100654.55;;;;-50
2020/12/01 00:37:53;;;;;;;6.09;5.49;;;;;;;18.69;46.92;100647.78;;;;-56
2020/12/01 00:40:53;;;;;;;6.18;5.58;;;;;;;18.66;46.90;100637.94;;;;-49
2020/12/01 00:43:52;;;;;;;6.25;5.65;;;;;;;18.64;46.92;100632.31;;;;-56
2020/12/01 00:46:53;;;;;;;6.17;5.57;;;;;;;18.62;46.92;100627.98;;;;-56
2020/12/01 00:49:53;;;;;;;6.15;5.55;;;;;;;18.61;46.89;100623.73;;;;-50
2020/12/01 00:52:52;;;;;;;6.20;5.60;;;;;;;18.59;46.95;100623.06;;;;-49
2020/12/01 00:55:53;;;;;;;5.63;5.13;;;;;;;18.56;47.01;100613.86;;;;-62
2020/12/01 00:58:53;;;;;;;6.37;5.77;;;;;;;18.55;46.97;100613.63;;;;-55
2020/12/01 01:01:52;;;;;;;6.27;5.43;;;;;;;18.54;47.04;100608.56;;;;-62
2020/12/01 01:04:53;;;;;;;6.00;5.41;;;;;;;18.52;46.96;100598.23;;;;-62
2020/12/01 01:07:52;;;;;;;6.11;5.51;;;;;;;18.50;47.01;100587.25;;;;-51
2020/12/01 01:10:55;;;;;;;6.24;5.62;;;;;;;18.48;47.10;100582.27;;;;-61
2020/12/01 01:13:53;;;;;;;5.55;5.03;;;;;;;18.46;47.08;100576.00;;;;-49
2020/12/01 01:16:52;;;;;;;6.14;5.54;;;;;;;18.44;46.99;100578.41;;;;-50
2020/12/01 01:19:52;;;;;;;6.09;5.49;;;;;;;18.43;47.06;100574.67;;;;-49
2020/12/01 01:22:53;;;;;;;5.96;5.36;;;;;;;18.42;46.99;100574.97;;;;-49
2020/12/01 01:25:52;;;;;;;6.05;5.46;;;;;;;18.40;47.06;100571.22;;;;-48
2020/12/01 01:28:53;;;;;;;5.79;5.27;;;;;;;18.38;47.27;100571.76;;;;-56
2020/12/01 01:31:53;;;;;;;5.93;5.35;;;;;;;18.37;47.14;100557.89;;;;-54
2020/12/01 01:34:52;;;;;;;5.78;5.23;;;;;;;18.36;47.33;100550.88;;;;-49
2020/12/01 01:37:53;;;;;;;5.73;5.13;;;;;;;18.33;47.28;100544.61;;;;-62
2020/12/01 01:40:53;;;;;;;5.98;5.38;;;;;;;18.31;47.24;100532.41;;;;-50
2020/12/01 01:43:52;;;;;;;5.87;5.25;;;;;;;18.31;47.24;100526.41;;;;-56
2020/12/01 01:46:53;;;;;;;6.06;5.46;;;;;;;18.29;47.14;100522.00;;;;-50
2020/12/01 01:49:53;;;;;;;5.55;5.05;;;;;;;18.27;47.21;100519.70;;;;-62
2020/12/01 01:52:52;;;;;;;5.71;5.19;;;;;;;18.26;47.30;100514.44;;;;-51
2020/12/01 01:55:52;;;;;;;5.92;5.32;;;;;;;18.25;47.28;100511.81;;;;-51
2020/12/01 01:58:53;;;;;;;5.90;5.30;;;;;;;18.24;47.01;100514.55;;;;-50
2020/12/01 02:01:53;;;;;;;5.58;5.08;;;;;;;18.23;47.37;100506.19;;;;-62
2020/12/01 02:04:53;;;;;;;5.72;5.21;;;;;;;18.22;47.25;100503.33;;;;-62
2020/12/01 02:07:53;;;;;;;5.79;5.25;;;;;;;18.21;47.39;100489.30;;;;-51
2020/12/01 02:10:52;;;;;;;5.97;5.44;;;;;;;18.20;47.24;100476.30;;;;-61
2020/12/01 02:13:53;;;;;;;5.86;5.26;;;;;;;18.19;47.25;100469.31;;;;-49
2020/12/01 02:16:53;;;;;;;6.19;5.31;;;;;;;18.17;47.33;100464.67;;;;-49
2020/12/01 02:19:53;;;;;;;5.30;4.80;;;;;;;18.17;47.17;100465.16;;;;-51
2020/12/01 02:22:53;;;;;;;5.81;5.21;;;;;;;18.16;47.26;100461.34;;;;-62
2020/12/01 02:25:53;;;;;;;5.79;5.19;;;;;;;18.14;47.36;100459.38;;;;-56
2020/12/01 02:28:53;;;;;;;5.57;5.05;;;;;;;18.15;47.30;100457.51;;;;-56
2020/12/01 02:31:53;;;;;;;5.40;4.90;;;;;;;18.13;47.26;100452.05;;;;-56
2020/12/01 02:34:52;;;;;;;5.45;4.91;;;;;;;18.12;47.23;100440.05;;;;-49
2020/12/01 02:37:52;;;;;;;5.57;5.07;;;;;;;18.13;47.08;100438.99;;;;-48
2020/12/01 02:40:53;;;;;;;5.59;5.08;;;;;;;18.11;47.16;100433.86;;;;-50
2020/12/01 02:43:52;;;;;;;5.53;5.03;;;;;;;18.09;47.25;100436.27;;;;-61
2020/12/01 02:46:53;;;;;;;5.61;5.05;;;;;;;18.09;47.21;100439.34;;;;-51
2020/12/01 02:49:53;;;;;;;5.51;5.01;;;;;;;18.07;47.26;100434.73;;;;-62
2020/12/01 02:52:52;;;;;;;5.64;4.91;;;;;;;18.07;47.25;100431.22;;;;-49
2020/12/01 02:55:52;;;;;;;5.37;4.87;;;;;;;18.06;47.11;100421.00;;;;-49
2020/12/01 02:58:53;;;;;;;5.53;5.03;;;;;;;18.03;47.29;100411.81;;;;-49
2020/12/01 03:01:52;;;;;;;5.38;4.88;;;;;;;18.03;47.37;100406.52;;;;-49
2020/12/01 03:04:52;;;;;;;5.51;5.01;;;;;;;18.02;47.24;100405.14;;;;-56
2020/12/01 03:07:53;;;;;;;5.31;4.81;;;;;;;18.00;47.47;100404.55;;;;-49
2020/12/01 03:10:52;;;;;;;5.29;4.79;;;;;;;18.00;47.42;100398.14;;;;-56
2020/12/01 03:13:53;;;;;;;5.57;4.71;;;;;;;17.99;47.37;100395.44;;;;-56
2020/12/01 03:16:53;;;;;;;5.37;4.87;;;;;;;17.97;47.47;100390.63;;;;-56
2020/12/01 03:19:52;;;;;;;5.40;4.90;;;;;;;17.96;47.48;100389.75;;;;-61
2020/12/01 03:22:52;;;;;;;5.39;4.89;;;;;;;17.95;47.25;100385.91;;;;-56
2020/12/01 03:25:53;;;;;;;5.47;4.94;;;;;;;17.94;47.46;100384.61;;;;-55
2020/12/01 03:28:52;;;;;;;5.26;4.76;;;;;;;17.94;47.56;100378.29;;;;-61
2020/12/01 03:31:52;;;;;;;5.16;4.66;;;;;;;17.93;47.43;100378.10;;;;-49
2020/12/01 03:34:53;;;;;;;5.17;4.67;;;;;;;17.91;47.57;100372.35;;;;-56
2020/12/01 03:37:52;;;;;;;5.37;4.87;;;;;;;17.91;47.55;100366.52;;;;-62
2020/12/01 03:40:53;;;;;;;5.13;4.58;;;;;;;17.90;47.52;100364.95;;;;-62
2020/12/01 03:43:52;;;;;;;5.08;4.58;;;;;;;17.88;47.58;100362.00;;;;-62
2020/12/01 03:46:52;;;;;;;5.08;4.58;;;;;;;17.88;47.52;100358.03;;;;-50
2020/12/01 03:49:53;;;;;;;4.95;4.45;;;;;;;17.88;47.58;100360.30;;;;-62
2020/12/01 03:52:52;;;;;;;5.28;4.78;;;;;;;17.86;47.61;100355.73;;;;-62
2020/12/01 03:55:52;;;;;;;5.10;4.60;;;;;;;17.85;47.58;100357.61;;;;-49
2020/12/01 03:58:53;;;;;;;5.27;4.76;;;;;;;17.84;47.49;100356.12;;;;-49
2020/12/01 04:01:52;;;;;;;5.25;4.75;;;;;;;17.83;47.65;100348.17;;;;-51
2020/12/01 04:04:52;;;;;;;5.21;4.71;;;;;;;17.83;47.58;100347.86;;;;-61
2020/12/01 04:07:53;;;;;;;5.08;4.58;;;;;;;17.81;47.63;100342.13;;;;-56
2020/12/01 04:10:52;;;;;;;5.03;4.55;;;;;;;17.80;47.61;100337.48;;;;-51
2020/12/01 04:13:53;;;;;;;4.85;4.43;;;;;;;17.79;47.61;100336.91;;;;-50
2020/12/01 04:16:53;;;;;;;4.84;4.40;;;;;;;17.78;47.62;100337.81;;;;-49
2020/12/01 04:19:52;;;;;;;5.05;4.55;;;;;;;17.77;47.61;100336.48;;;;-48
2020/12/01 04:22:53;;;;;;;4.65;4.25;;;;;;;17.77;47.62;100336.56;;;;-51
2020/12/01 04:25:53;;;;;;;4.64;4.24;;;;;;;17.76;47.62;100334.76;;;;-62
2020/12/01 04:28:52;;;;;;;4.92;4.51;;;;;;;17.76;47.61;100336.95;;;;-63
2020/12/01 04:31:52;;;;;;;4.69;4.29;;;;;;;17.76;47.64;100331.19;;;;-62
2020/12/01 04:34:53;;;;;;;5.75;4.53;;;;;;;17.75;47.70;100331.68;;;;-49
2020/12/01 04:37:53;;;;;;;4.87;4.39;;;;;;;17.74;47.78;100329.88;;;;-48
2020/12/01 04:40:53;;;;;;;4.69;4.29;;;;;;;17.73;47.71;100326.47;;;;-50
2020/12/01 04:43:53;;;;;;;4.55;4.15;;;;;;;17.73;47.81;100321.13;;;;-50
2020/12/01 04:46:52;;;;;;;4.43;4.03;;;;;;;17.72;47.19;100314.29;;;;-57
2020/12/01 04:49:53;;;;;;;9.97;8.29;;;;;;;17.49;43.64;100316.56;;;;-60
2020/12/01 04:52:52;;;;;;;11.88;9.36;;;;;;;17.23;43.24;100310.55;;;;-48
2020/12/01 04:55:52;;;;;;;9.99;8.03;;;;;;;17.30;44.51;100306.98;;;;-48
2020/12/01 04:59:53;;;;;;;10.09;6.53;;;;;;;17.35;45.74;100301.72;;;;-50
2020/12/01 05:03:53;;;;;;;8.45;6.14;;;;;;;17.38;45.85;100296.89;;;;-50
2020/12/01 05:07:01;;;;;;;6.84;5.66;;;;;;;17.41;46.18;100297.67;;;;-50
2020/12/01 05:09:52;;;;;;;8.26;5.83;;;;;;;17.43;46.20;100298.58;;;;-51
2020/12/01 05:12:52;;;;;;;14.88;8.45;;;;;;;17.22;43.41;100298.45;;;;-48
2020/12/01 05:15:53;;;;;;;10.32;8.55;;;;;;;17.05;43.25;100292.00;;;;-50
2020/12/01 05:18:52;;;;;;;9.74;8.79;;;;;;;16.92;42.87;100293.29;;;;-48
2020/12/01 05:21:52;;;;;;;10.89;8.51;;;;;;;16.84;42.73;100290.26;;;;-48
2020/12/01 05:24:53;;;;;;;11.83;8.27;;;;;;;16.88;43.79;100287.64;;;;-49
2020/12/01 05:27:52;;;;;;;7.65;6.76;;;;;;;16.98;44.42;100286.01;;;;-51
2020/12/01 05:30:52;;;;;;;7.84;6.32;;;;;;;17.05;44.60;100286.66;;;;-53
2020/12/01 05:33:53;;;;;;;7.52;6.12;;;;;;;17.09;44.96;100290.12;;;;-55
2020/12/01 05:36:52;;;;;;;5.88;5.35;;;;;;;17.14;45.18;100288.58;;;;-56
2020/12/01 05:39:52;;;;;;;8.71;5.55;;;;;;;17.15;45.39;100290.36;;;;-53
2020/12/01 05:42:52;;;;;;;8.29;5.34;;;;;;;17.17;45.45;100291.61;;;;-54
2020/12/01 05:45:52;;;;;;;6.30;4.85;;;;;;;17.17;45.53;100291.12;;;;-54
2020/12/01 05:48:53;;;;;;;5.27;4.69;;;;;;;17.18;45.63;100292.66;;;;-56
2020/12/01 05:51:52;;;;;;;4.99;4.49;;;;;;;17.18;45.72;100289.90;;;;-53
2020/12/01 05:54:52;;;;;;;5.51;4.53;;;;;;;17.19;45.67;100289.93;;;;-54
2020/12/01 05:57:52;;;;;;;4.39;3.99;;;;;;;17.19;45.83;100290.66;;;;-55
2020/12/01 06:00:52;;;;;;;4.84;4.28;;;;;;;17.20;45.82;100290.57;;;;-55
2020/12/01 06:03:52;;;;;;;5.07;4.17;;;;;;;17.21;45.90;100282.59;;;;-56
2020/12/01 06:06:53;;;;;;;4.90;3.89;;;;;;;17.20;45.96;100280.30;;;;-55
2020/12/01 06:09:52;;;;;;;4.77;3.94;;;;;;;17.21;46.05;100282.59;;;;-53
2020/12/01 06:12:52;;;;;;;4.14;3.74;;;;;;;17.22;46.07;100278.05;;;;-53
2020/12/01 06:15:52;;;;;;;4.44;3.89;;;;;;;17.23;46.21;100280.34;;;;-53
2020/12/01 06:18:52;;;;;;;4.27;3.84;;;;;;;17.22;46.27;100280.80;;;;-54
2020/12/01 06:21:52;;;;;;;4.49;3.69;;;;;;;17.22;46.30;100281.70;;;;-58
2020/12/01 06:24:54;;;;;;;4.34;3.59;;;;;;;17.22;46.20;100286.14;;;;-54
2020/12/01 06:29:53;;;;;;;4.59;3.39;;;;;;;17.25;46.11;100284.66;;;;-56
2020/12/01 06:32:55;;;;;;;4.86;3.57;;;;;;;17.27;46.15;100286.06;;;;-56
2020/12/01 06:36:53;;;;;;;3.63;3.33;;;;;;;17.29;46.22;100281.80;;;;-56
2020/12/01 06:39:52;;;;;;;4.41;3.38;;;;;;;17.32;46.61;100284.66;;;;-53
2020/12/01 06:42:52;;;;;;;3.59;3.25;;;;;;;17.36;46.75;100282.77;;;;-55
2020/12/01 06:45:53;;;;;;;4.22;3.09;;;;;;;17.40;46.80;100289.70;;;;-54
2020/12/01 06:48:52;;;;;;;3.73;3.25;;;;;;;17.42;46.92;100286.00;;;;-55
2020/12/01 06:51:52;;;;;;;3.58;3.25;;;;;;;17.46;46.85;100284.11;;;;-58
2020/12/01 06:54:52;;;;;;;3.37;3.07;;;;;;;17.50;46.90;100278.89;;;;-58
2020/12/01 06:57:52;;;;;;;3.25;2.95;;;;;;;17.53;46.99;100279.80;;;;-54
2020/12/01 07:00:52;;;;;;;3.06;2.83;;;;;;;17.56;46.93;100279.84;;;;-54
2020/12/01 07:03:52;;;;;;;3.14;2.77;;;;;;;17.61;46.97;100282.33;;;;-54
2020/12/01 07:06:52;;;;;;;3.09;2.79;;;;;;;17.64;46.94;100284.56;;;;-55
2020/12/01 07:09:53;;;;;;;3.26;2.96;;;;;;;17.68;46.98;100285.80;;;;-55
2020/12/01 07:12:52;;;;;;;3.87;3.13;;;;;;;17.70;47.00;100286.98;;;;-54
2020/12/01 07:15:52;;;;;;;3.08;2.78;;;;;;;17.73;46.95;100289.91;;;;-57
2020/12/01 07:18:53;;;;;;;4.03;2.90;;;;;;;17.75;47.02;100287.18;;;;-53
2020/12/01 07:21:52;;;;;;;3.39;3.01;;;;;;;17.78;47.04;100289.88;;;;-53
2020/12/01 07:24:52;;;;;;;3.07;2.77;;;;;;;17.79;46.96;100284.96;;;;-53
2020/12/01 07:27:52;;;;;;;2.90;2.65;;;;;;;17.81;46.96;100281.58;;;;-53
2020/12/01 07:30:52;;;;;;;3.05;2.75;;;;;;;17.81;47.02;100281.66;;;;-53
2020/12/01 07:33:52;;;;;;;3.91;2.75;;;;;;;17.83;47.03;100284.06;;;;-55
2020/12/01 07:36:52;;;;;;;2.87;2.67;;;;;;;17.83;46.97;100283.00;;;;-57
2020/12/01 07:39:52;;;;;;;2.89;2.68;;;;;;;17.84;47.05;100286.49;;;;-54
2020/12/01 07:42:52;;;;;;;3.19;2.79;;;;;;;17.85;47.07;100285.70;;;;-53
2020/12/01 07:45:52;;;;;;;3.07;2.81;;;;;;;17.85;47.07;100285.70;;;;-56
2020/12/01 07:48:52;;;;;;;3.19;2.89;;;;;;;17.86;47.18;100290.73;;;;-55
2020/12/01 07:51:52;;;;;;;3.71;2.78;;;;;;;17.85;47.09;100290.97;;;;-56
2020/12/01 07:54:52;;;;;;;2.89;2.57;;;;;;;17.85;47.19;100289.84;;;;-55
2020/12/01 07:57:52;;;;;;;2.91;2.64;;;;;;;17.86;47.22;100289.75;;;;-56
2020/12/01 08:00:53;;;;;;;3.06;2.85;;;;;;;17.85;47.26;100283.68;;;;-55
2020/12/01 08:03:52;;;;;;;2.97;2.69;;;;;;;17.86;47.27;100292.52;;;;-53
2020/12/01 08:06:52;;;;;;;2.81;2.61;;;;;;;17.86;47.29;100290.23;;;;-54
2020/12/01 08:09:52;;;;;;;2.79;2.59;;;;;;;17.86;47.34;100290.97;;;;-58
2020/12/01 08:12:52;;;;;;;2.89;2.65;;;;;;;17.86;47.26;100294.45;;;;-53
2020/12/01 08:15:52;;;;;;;3.12;2.82;;;;;;;17.86;47.23;100293.40;;;;-54
2020/12/01 08:18:53;;;;;;;2.82;2.62;;;;;;;17.86;47.24;100294.30;;;;-54
2020/12/01 08:21:52;;;;;;;2.99;2.69;;;;;;;17.85;47.33;100296.65;;;;-58
2020/12/01 08:24:52;;;;;;;2.95;2.71;;;;;;;17.86;47.23;100298.52;;;;-53
2020/12/01 08:27:52;;;;;;;2.91;2.61;;;;;;;17.85;47.12;100301.59;;;;-54
2020/12/01 08:30:52;;;;;;;3.01;2.71;;;;;;;17.85;47.12;100304.43;;;;-54
2020/12/01 08:33:58;;;;;;;2.87;2.67;;;;;;;17.85;47.28;100304.11;;;;-54
2020/12/01 08:36:52;;;;;;;3.19;2.89;;;;;;;17.86;47.19;100299.64;;;;-58
2020/12/01 08:39:54;;;;;;;3.04;2.74;;;;;;;17.85;47.07;100299.41;;;;-57
2020/12/01 08:42:53;;;;;;;6.15;3.07;;;;;;;17.87;47.30;100303.23;;;;-58
2020/12/01 08:45:53;;;;;;;3.51;2.91;;;;;;;17.88;47.48;100309.95;;;;-60
2020/12/01 08:49:05;;;;;;;2.91;2.65;;;;;;;17.92;47.65;100313.57;;;;-58
2020/12/01 08:51:53;;;;;;;2.83;2.62;;;;;;;17.94;47.80;100311.41;;;;-51
2020/12/01 08:54:52;;;;;;;3.05;2.77;;;;;;;17.99;47.93;100312.33;;;;-51
2020/12/01 08:57:52;;;;;;;3.35;2.65;;;;;;;18.03;47.92;100314.97;;;;-52
2020/12/01 09:00:52;;;;;;;3.08;2.66;;;;;;;18.09;47.92;100311.70;;;;-50
2020/12/01 09:03:52;;;;;;;2.92;2.62;;;;;;;18.13;47.96;100308.50;;;;-48
2020/12/01 09:06:56;;;;;;;2.70;2.49;;;;;;;18.19;48.10;100307.19;;;;-50
2020/12/01 09:09:53;;;;;;;2.79;2.50;;;;;;;18.24;48.08;100307.08;;;;-51
2020/12/01 09:12:56;;;;;;;2.98;2.68;;;;;;;18.30;48.08;100313.77;;;;-51
2020/12/01 09:16:07;;;;;;;4.13;2.75;;;;;;;18.35;47.95;100311.47;;;;-50
2020/12/01 09:19:16;;;;;;;2.75;2.53;;;;;;;18.37;47.62;100315.55;;;;-62
2020/12/01 09:21:54;;;;;;;3.08;2.60;;;;;;;18.40;47.54;100318.80;;;;-50
2020/12/01 09:24:52;;;;;;;3.71;2.71;;;;;;;18.42;47.52;100316.79;;;;-62
2020/12/01 09:27:52;;;;;;;4.73;2.88;;;;;;;18.48;47.48;100322.28;;;;-51
2020/12/01 09:30:52;;;;;;;3.39;2.57;;;;;;;18.49;47.40;100330.50;;;;-51
2020/12/01 09:33:52;;;;;;;3.79;3.03;;;;;;;18.49;46.41;100325.03;;;;-67
2020/12/01 09:36:52;;;;;;;5.46;2.99;;;;;;;18.52;46.68;100328.00;;;;-53
2020/12/01 09:39:52;;;;;;;4.61;2.93;;;;;;;18.58;47.01;100328.29;;;;-53
2020/12/01 09:42:55;;;;;;;2.93;2.56;;;;;;;18.63;47.23;100325.80;;;;-55
2020/12/01 09:45:54;;;;;;;3.34;2.66;;;;;;;18.66;47.35;100322.59;;;;-57
2020/12/01 09:48:52;;;;;;;5.15;2.69;;;;;;;18.70;47.58;100324.73;;;;-59
2020/12/01 09:51:58;;;;;;;5.77;2.69;;;;;;;18.73;47.57;100323.77;;;;-57
2020/12/01 09:54:57;;;;;;;3.51;2.61;;;;;;;18.77;47.65;100326.39;;;;-53
2020/12/01 09:57:59;;;;;;;4.82;2.87;;;;;;;18.80;47.71;100328.33;;;;-54
2020/12/01 10:02:54;;;;;;;3.86;2.72;;;;;;;18.85;47.72;100332.34;;;;-52
2020/12/01 10:08:43;;;;;;;4.24;2.53;;;;;;;18.88;47.33;100325.84;;;;-47
2020/12/01 10:11:06;;;;;;;4.65;2.87;;;;;;;18.90;47.38;100324.39;;;;-58
2020/12/01 10:13:59;;;;;;;3.83;2.76;;;;;;;18.91;47.32;100320.93;;;;-47
2020/12/01 10:17:32;;;;;;;3.52;2.53;;;;;;;18.93;47.28;100322.08;;;;-47
2020/12/01 10:25:38;;;;;;;3.21;2.70;;;;;;;18.97;47.29;100320.08;;;;-57
2020/12/01 10:32:29;;;;;;;4.62;2.77;;;;;;;19.03;47.20;100328.05;;;;-56
2020/12/01 10:34:57;;;;;;;3.72;2.92;;;;;;;19.03;46.73;100323.20;;;;-58
2020/12/01 10:37:52;;;;;;;6.49;3.63;;;;;;;19.02;45.93;100323.83;;;;-58
2020/12/01 10:40:52;;;;;;;5.15;3.33;;;;;;;19.04;46.39;100328.15;;;;-58
2020/12/01 10:43:52;;;;;;;7.04;3.01;;;;;;;19.06;46.71;100326.37;;;;-54
2020/12/01 10:46:52;;;;;;;3.92;2.89;;;;;;;19.09;46.83;100326.13;;;;-54
2020/12/01 10:49:52;;;;;;;3.53;2.70;;;;;;;19.11;46.96;100325.09;;;;-54
2020/12/01 10:52:52;;;;;;;4.42;2.69;;;;;;;19.13;46.87;100326.80;;;;-58
2020/12/01 10:55:52;;;;;;;4.52;2.82;;;;;;;19.15;46.93;100324.14;;;;-53
2020/12/01 10:58:52;;;;;;;3.09;2.79;;;;;;;19.17;46.99;100326.83;;;;-54
2020/12/01 11:01:52;;;;;;;3.13;2.75;;;;;;;19.18;46.99;100325.39;;;;-53
2020/12/01 11:04:52;;;;;;;2.87;2.57;;;;;;;19.20;47.05;100322.88;;;;-54
2020/12/01 11:07:52;;;;;;;3.23;2.51;;;;;;;19.21;47.03;100313.20;;;;-53
2020/12/01 11:10:52;;;;;;;3.69;2.63;;;;;;;19.21;47.05;100318.16;;;;-53
2020/12/01 11:13:52;;;;;;;3.39;2.65;;;;;;;19.24;47.05;100321.60;;;;-53
2020/12/01 11:16:52;;;;;;;4.51;2.85;;;;;;;19.28;46.90;100323.91;;;;-50
2020/12/01 11:19:52;;;;;;;4.82;3.01;;;;;;;19.31;46.85;100326.27;;;;-58
2020/12/01 11:22:52;;;;;;;4.65;2.89;;;;;;;19.29;46.90;100327.22;;;;-58
2020/12/01 11:25:52;;;;;;;4.45;2.82;;;;;;;19.31;46.98;100329.51;;;;-52
2020/12/01 11:28:52;;;;;;;3.24;2.75;;;;;;;19.33;47.05;100328.95;;;;-58
2020/12/01 11:31:52;;;;;;;3.19;2.60;;;;;;;19.33;47.02;100330.17;;;;-59
2020/12/01 11:34:52;;;;;;;4.47;2.69;;;;;;;19.34;47.09;100329.84;;;;-53
2020/12/01 11:37:52;;;;;;;2.91;2.59;;;;;;;19.35;46.97;100335.22;;;;-52
2020/12/01 11:40:52;;;;;;;3.17;2.40;;;;;;;19.37;47.00;100339.13;;;;-53
2020/12/01 11:43:52;;;;;;;2.76;2.56;;;;;;;19.37;47.07;100337.09;;;;-52
2020/12/01 11:46:52;;;;;;;3.54;2.57;;;;;;;19.39;47.10;100336.22;;;;-52
2020/12/01 11:49:52;;;;;;;3.07;2.67;;;;;;;19.40;47.14;100339.73;;;;-52
2020/12/01 11:52:52;;;;;;;2.61;2.41;;;;;;;19.41;47.03;100339.06;;;;-54
2020/12/01 11:55:52;;;;;;;2.97;2.52;;;;;;;19.42;46.96;100337.84;;;;-54
2020/12/01 11:58:52;;;;;;;2.87;2.57;;;;;;;19.43;47.03;100337.78;;;;-58
2020/12/01 12:01:52;;;;;;;2.98;2.39;;;;;;;19.46;47.02;100342.42;;;;-59
2020/12/01 12:04:52;;;;;;;3.09;2.31;;;;;;;19.46;47.02;100339.92;;;;-58
2020/12/01 12:07:52;;;;;;;2.85;2.40;;;;;;;19.47;47.08;100338.86;;;;-55
2020/12/01 12:10:52;;;;;;;3.23;2.31;;;;;;;19.48;46.95;100342.98;;;;-52
2020/12/01 12:13:52;;;;;;;3.02;2.38;;;;;;;19.49;47.06;100341.47;;;;-52
2020/12/01 12:16:52;;;;;;;2.81;2.50;;;;;;;19.50;47.09;100335.94;;;;-53
2020/12/01 12:19:52;;;;;;;3.03;2.50;;;;;;;19.51;47.02;100333.89;;;;-52
2020/12/01 12:22:52;;;;;;;2.45;2.25;;;;;;;19.51;46.99;100334.08;;;;-52
2020/12/01 12:25:52;;;;;;;3.33;2.55;;;;;;;19.53;47.06;100336.34;;;;-52
2020/12/01 12:28:52;;;;;;;2.47;2.27;;;;;;;19.54;47.03;100336.84;;;;-52
2020/12/01 12:31:52;;;;;;;3.08;2.30;;;;;;;19.55;47.02;100336.21;;;;-52
2020/12/01 12:34:52;;;;;;;2.51;2.31;;;;;;;19.55;47.00;100335.16;;;;-52
2020/12/01 12:37:52;;;;;;;2.62;2.42;;;;;;;19.56;47.11;100331.65;;;;-54
2020/12/01 12:40:52;;;;;;;2.61;2.41;;;;;;;19.58;46.93;100331.81;;;;-53
2020/12/01 12:43:52;;;;;;;2.62;2.33;;;;;;;19.58;47.09;100331.73;;;;-55
2020/12/01 12:46:52;;;;;;;3.34;2.40;;;;;;;19.59;47.00;100334.77;;;;-55
2020/12/01 12:49:52;;;;;;;2.57;2.37;;;;;;;19.60;46.95;100335.08;;;;-54
2020/12/01 12:52:52;;;;;;;3.19;2.52;;;;;;;19.61;46.98;100338.44;;;;-53
2020/12/01 12:55:53;;;;;;;2.71;2.45;;;;;;;19.62;47.09;100338.99;;;;-54
2020/12/01 12:58:53;;;;;;;3.93;2.69;;;;;;;19.64;46.74;100336.72;;;;-59
2020/12/01 13:01:52;;;;;;;5.44;2.44;;;;;;;19.65;46.73;100340.30;;;;-52
2020/12/01 13:04:52;;;;;;;3.07;2.55;;;;;;;19.66;46.88;100343.00;;;;-54
2020/12/01 13:07:52;;;;;;;2.61;2.41;;;;;;;19.66;46.82;100349.25;;;;-54
2020/12/01 13:10:52;;;;;;;3.76;2.18;;;;;;;19.66;46.93;100344.62;;;;-55
2020/12/01 13:13:52;;;;;;;3.74;2.46;;;;;;;19.66;46.91;100348.11;;;;-58
2020/12/01 13:16:52;;;;;;;2.69;2.30;;;;;;;19.65;46.83;100345.58;;;;-59
2020/12/01 13:19:52;;;;;;;3.89;2.41;;;;;;;19.65;46.74;100346.58;;;;-58
2020/12/01 13:22:52;;;;;;;3.51;2.36;;;;;;;19.63;46.85;100348.41;;;;-56
2020/12/01 13:25:52;;;;;;;4.97;2.49;;;;;;;19.67;46.75;100349.35;;;;-51
2020/12/01 13:28:52;;;;;;;3.53;2.46;;;;;;;19.68;46.95;100346.25;;;;-54
2020/12/01 13:31:52;;;;;;;12.01;2.89;;;;;;;19.69;46.86;100342.13;;;;-56
2020/12/01 13:34:52;;;;;;;8.61;2.71;;;;;;;19.68;46.55;100342.59;;;;-49
2020/12/01 13:37:52;;;;;;;6.16;2.83;;;;;;;19.66;46.65;100346.08;;;;-60
2020/12/01 13:40:52;;;;;;;6.60;2.66;;;;;;;19.65;46.50;100344.52;;;;-57
2020/12/01 13:43:52;;;;;;;9.02;2.53;;;;;;;19.63;46.50;100342.81;;;;-54
2020/12/01 13:46:52;;;;;;;3.09;2.45;;;;;;;19.59;46.65;100344.33;;;;-47
2020/12/01 13:49:52;;;;;;;5.13;2.72;;;;;;;19.60;46.78;100347.52;;;;-56
2020/12/01 13:52:52;;;;;;;4.55;2.47;;;;;;;19.61;46.83;100351.41;;;;-52
2020/12/01 13:55:52;;;;;;;4.59;2.41;;;;;;;19.62;47.00;100359.31;;;;-49
2020/12/01 13:58:52;;;;;;;3.84;2.58;;;;;;;19.65;46.94;100365.25;;;;-58
2020/12/01 14:01:52;;;;;;;2.79;2.44;;;;;;;19.66;47.03;100370.88;;;;-59
2020/12/01 14:04:52;;;;;;;2.51;2.31;;;;;;;19.68;46.91;100376.49;;;;-57
2020/12/01 14:07:53;;;;;;;2.88;2.39;;;;;;;19.71;46.99;100376.69;;;;-59
2020/12/01 14:10:52;;;;;;;4.42;2.41;;;;;;;19.72;47.15;100378.50;;;;-58
2020/12/01 14:13:52;;;;;;;3.68;2.38;;;;;;;19.74;47.30;100378.34;;;;-56
2020/12/01 14:16:52;;;;;;;2.96;2.27;;;;;;;19.76;47.24;100379.65;;;;-54
2020/12/01 14:19:55;;;;;;;3.49;2.22;;;;;;;19.79;47.25;100379.73;;;;-56
2020/12/01 14:22:53;;;;;;;2.80;2.35;;;;;;;19.81;47.28;100384.38;;;;-51
2020/12/01 14:25:52;;;;;;;3.14;2.67;;;;;;;19.86;47.29;100385.20;;;;-54
2020/12/01 14:28:53;;;;;;;2.59;2.39;;;;;;;19.87;47.32;100389.28;;;;-50
2020/12/01 14:31:52;;;;;;;4.25;2.59;;;;;;;19.88;47.27;100392.31;;;;-51
2020/12/01 14:34:53;;;;;;;4.27;3.12;;;;;;;19.88;46.19;100395.40;;;;-51
2020/12/01 14:37:52;;;;;;;4.76;3.68;;;;;;;19.86;45.97;100396.37;;;;-53
2020/12/01 14:40:52;;;;;;;4.12;3.68;;;;;;;19.83;44.86;100396.27;;;;-51
2020/12/01 14:43:52;;;;;;;4.65;3.53;;;;;;;19.81;44.99;100398.45;;;;-50
2020/12/01 14:46:52;;;;;;;4.52;3.74;;;;;;;19.81;44.82;100403.73;;;;-55
2020/12/01 14:49:52;;;;;;;5.23;3.40;;;;;;;19.82;45.42;100407.73;;;;-59
2020/12/01 14:52:52;;;;;;;5.77;3.37;;;;;;;19.83;45.57;100406.02;;;;-60
2020/12/01 14:55:52;;;;;;;3.51;2.99;;;;;;;19.84;45.77;100406.98;;;;-60
2020/12/01 14:58:52;;;;;;;3.72;3.08;;;;;;;19.85;45.97;100408.70;;;;-53
2020/12/01 15:01:52;;;;;;;3.13;2.77;;;;;;;19.85;46.04;100409.52;;;;-53
2020/12/01 15:04:52;;;;;;;4.66;2.83;;;;;;;19.86;46.14;100410.19;;;;-60
2020/12/01 15:07:52;;;;;;;3.46;2.97;;;;;;;19.88;46.26;100412.86;;;;-60
2020/12/01 15:11:52;;;;;;;3.28;2.76;;;;;;;19.88;46.28;100415.08;;;;-53
2020/12/01 15:14:52;;;;;;;3.51;2.81;;;;;;;19.88;46.30;100414.42;;;;-60
2020/12/01 15:17:52;;;;;;;3.28;2.81;;;;;;;19.89;46.31;100414.73;;;;-57
2020/12/01 15:20:52;;;;;;;3.21;2.74;;;;;;;19.90;46.33;100412.24;;;;-57
2020/12/01 15:23:52;;;;;;;3.32;2.83;;;;;;;19.90;46.40;100405.82;;;;-54
2020/12/01 15:26:52;;;;;;;3.11;2.81;;;;;;;19.91;46.39;100402.47;;;;-60
2020/12/01 15:29:52;;;;;;;3.13;2.79;;;;;;;19.92;46.50;100403.20;;;;-60
2020/12/01 15:32:52;;;;;;;3.02;2.59;;;;;;;19.92;46.49;100406.12;;;;-56
2020/12/01 15:35:59;;;;;;;3.13;2.81;;;;;;;19.93;46.48;100403.45;;;;-56
2020/12/01 15:38:52;;;;;;;3.16;2.86;;;;;;;19.93;46.50;100406.06;;;;-54
2020/12/01 15:41:52;;;;;;;3.20;2.77;;;;;;;19.94;46.47;100405.89;;;;-60
2020/12/01 15:44:52;;;;;;;3.15;2.80;;;;;;;19.94;46.42;100404.13;;;;-60
2020/12/01 15:47:52;;;;;;;3.23;2.69;;;;;;;19.96;46.54;100402.64;;;;-60
2020/12/01 15:50:52;;;;;;;2.67;2.47;;;;;;;19.97;46.54;100407.14;;;;-61
2020/12/01 15:53:52;;;;;;;3.05;2.81;;;;;;;20.00;46.55;100409.23;;;;-57
2020/12/01 15:57:52;;;;;;;3.09;2.80;;;;;;;20.03;46.61;100413.58;;;;-56
2020/12/01 16:00:52;;;;;;;3.35;2.87;;;;;;;20.06;46.69;100420.33;;;;-64
2020/12/01 16:03:52;;;;;;;6.28;2.77;;;;;;;20.09;46.79;100425.89;;;;-57
2020/12/01 16:06:52;;;;;;;3.29;2.99;;;;;;;20.13;47.04;100432.30;;;;-55
2020/12/01 16:12:52;;;;;;;7.46;2.87;;;;;;;20.20;47.21;100434.45;;;;-52
2020/12/01 16:15:52;;;;;;;3.15;2.85;;;;;;;20.22;47.34;100440.00;;;;-59
2020/12/01 16:18:52;;;;;;;4.37;2.91;;;;;;;20.25;47.35;100441.61;;;;-60
2020/12/01 16:21:52;;;;;;;8.73;2.97;;;;;;;20.29;47.52;100441.09;;;;-53
2020/12/01 16:24:54;;;;;;;8.12;2.80;;;;;;;20.33;47.53;100444.09;;;;-52
2020/12/01 16:27:52;;;;;;;5.80;2.93;;;;;;;20.33;47.19;100449.38;;;;-52
2020/12/01 16:30:52;;;;;;;6.24;3.00;;;;;;;20.32;47.00;100456.72;;;;-54
2020/12/01 16:33:52;;;;;;;7.78;3.17;;;;;;;20.34;47.08;100459.23;;;;-55
2020/12/01 16:36:52;;;;;;;4.89;2.95;;;;;;;20.37;47.51;100459.06;;;;-53
2020/12/01 16:39:52;;;;;;;4.59;2.90;;;;;;;20.43;47.65;100463.00;;;;-54
2020/12/01 16:42:52;;;;;;;7.33;2.97;;;;;;;20.44;47.73;100463.74;;;;-57
2020/12/01 16:45:52;;;;;;;4.13;2.76;;;;;;;20.46;47.82;100461.39;;;;-54
2020/12/01 16:48:52;;;;;;;5.25;2.92;;;;;;;20.52;47.81;100462.52;;;;-63
2020/12/01 16:51:52;;;;;;;7.41;2.73;;;;;;;20.53;47.94;100460.91;;;;-63
2020/12/01 16:54:52;;;;;;;4.97;2.71;;;;;;;20.52;47.73;100461.30;;;;-53
2020/12/01 16:57:52;;;;;;;5.58;2.89;;;;;;;20.54;48.02;100465.20;;;;-55
2020/12/01 17:00:52;;;;;;;6.95;3.01;;;;;;;20.55;47.95;100470.84;;;;-46
2020/12/01 17:03:52;;;;;;;4.49;2.75;;;;;;;20.59;48.13;100475.11;;;;-51